^^
Saratoga-Weather Station Historical Data
Daily Summary for June 5, 2021 Units:  Both    English   Metric
Daily Weekly Monthly Yearly Custom
  High: Low: Average:
Temperature: 41.4 °F /  5.2 °C 34.2 °F /  1.2 °C 37.9 °F /  3.3 °C
Dew Point: 37.8 °F /  3.2 °C 33.1 °F /  0.6 °C 35.8 °F /  2.1 °C
Humidity: 96% 86% 92%
Wind Speed: 8.1mph /  13km/h - 1mph /  1.6km/h
Wind Gust: 11mph /  17.7km/h - -
Wind- - SW
Pressure: 29.8 in /  1008.8 hPa 29.6 in /  1001.4 hPa -
Precipitation: 0.12 in /  3.0 mm    
Historical Graphs
 
 
Tabular Data for June 5, 2021
Time Temperature Dew Point Pressure Wind Wind Speed Wind Gust Humidity Rainfall Rate (Hourly) solar
00:02 38.3 °F /  3.5 °C 35.4 °F /  1.9 °C 29.6in /  1002.7hPa West 2.9mph /  4.7km/h 4mph /  6.4km/h 89% 0in /  0.0mm 0 W/m2
00:07 38.3 °F /  3.5 °C 35.4 °F /  1.9 °C 29.6in /  1002.7hPa WSW 2mph /  3.2km/h 7mph /  11.3km/h 89% 0in /  0.0mm 0 W/m2
00:12 38.3 °F /  3.5 °C 35.4 °F /  1.9 °C 29.6in /  1002.7hPa SW 4.9mph /  7.9km/h 10mph /  16.1km/h 89% 0in /  0.0mm 0 W/m2
00:17 38.1 °F /  3.4 °C 35.2 °F /  1.8 °C 29.6in /  1002.7hPa WNW 2mph /  3.2km/h 8mph /  12.9km/h 89% 0in /  0.0mm 0 W/m2
00:22 38.1 °F /  3.4 °C 35.2 °F /  1.8 °C 29.6in /  1002.7hPa West 2mph /  3.2km/h 10mph /  16.1km/h 89% 0in /  0.0mm 0 W/m2
00:27 37.9 °F /  3.3 °C 35.1 °F /  1.7 °C 29.6in /  1002.7hPa NW 2.9mph /  4.7km/h 5mph /  8km/h 89% 0in /  0.0mm 0 W/m2
00:32 37.9 °F /  3.3 °C 35.1 °F /  1.7 °C 29.6in /  1002.7hPa NW 2mph /  3.2km/h 5mph /  8km/h 89% 0in /  0.0mm 0 W/m2
00:37 37.9 °F /  3.3 °C 35.1 °F /  1.7 °C 29.6in /  1003.0hPa West 2mph /  3.2km/h 5mph /  8km/h 89% 0in /  0.0mm 0 W/m2
00:42 37.9 °F /  3.3 °C 35.1 °F /  1.7 °C 29.6in /  1003.0hPa Calm   1mph /  1.6km/h 89% 0in /  0.0mm 0 W/m2
00:47 37.9 °F /  3.3 °C 35.2 °F /  1.8 °C 29.6in /  1003.0hPa NW 6mph /  9.7km/h 6mph /  9.7km/h 90% 0in /  0.0mm 0 W/m2
00:52 37.9 °F /  3.3 °C 35.2 °F /  1.8 °C 29.6in /  1003.0hPa North 0.9mph /  1.4km/h 3mph /  4.8km/h 90% 0in /  0.0mm 0 W/m2
00:57 37.9 °F /  3.3 °C 35.2 °F /  1.8 °C 29.6in /  1003.0hPa NNW 2mph /  3.2km/h 3mph /  4.8km/h 90% 0in /  0.0mm 0 W/m2
01:02 38.1 °F /  3.4 °C 35.4 °F /  1.9 °C 29.6in /  1003.0hPa WNW 2mph /  3.2km/h 4mph /  6.4km/h 90% 0in /  0.0mm 0 W/m2
01:07 38.1 °F /  3.4 °C 35.4 °F /  1.9 °C 29.6in /  1003.0hPa Calm   4mph /  6.4km/h 90% 0in /  0.0mm 0 W/m2
01:12 38.1 °F /  3.4 °C 35.4 °F /  1.9 °C 29.6in /  1002.7hPa Calm   4mph /  6.4km/h 90% 0in /  0.0mm 0 W/m2
01:17 38.3 °F /  3.5 °C 35.6 °F /  2 °C 29.6in /  1002.7hPa WNW 2mph /  3.2km/h 11mph /  17.7km/h 90% 0in /  0.0mm 0 W/m2
01:22 38.3 °F /  3.5 °C 35.6 °F /  2 °C 29.6in /  1002.7hPa WNW 2mph /  3.2km/h 5mph /  8km/h 90% 0in /  0.0mm 0 W/m2
01:27 38.5 °F /  3.6 °C 35.8 °F /  2.1 °C 29.6in /  1002.7hPa SSW 2.9mph /  4.7km/h 7mph /  11.3km/h 90% 0in /  0.0mm 0 W/m2
01:32 38.5 °F /  3.6 °C 35.8 °F /  2.1 °C 29.6in /  1002.7hPa North 2mph /  3.2km/h 4mph /  6.4km/h 90% 0in /  0.0mm 0 W/m2
01:37 38.7 °F /  3.7 °C 36 °F /  2.2 °C 29.6in /  1002.7hPa NNW 2mph /  3.2km/h 4mph /  6.4km/h 90% 0in /  0.0mm 0 W/m2
01:42 38.7 °F /  3.7 °C 36 °F /  2.2 °C 29.6in /  1002.7hPa NNW 4.9mph /  7.9km/h 7mph /  11.3km/h 90% 0in /  0.0mm 0 W/m2
01:47 38.8 °F /  3.8 °C 36.1 °F /  2.3 °C 29.6in /  1002.7hPa WNW 4mph /  6.4km/h 8mph /  12.9km/h 90% 0in /  0.0mm 0 W/m2
01:52 38.8 °F /  3.8 °C 36.1 °F /  2.3 °C 29.6in /  1002.7hPa SE 0.9mph /  1.4km/h 4mph /  6.4km/h 90% 0in /  0.0mm 0 W/m2
01:57 39 °F /  3.9 °C 36.3 °F /  2.4 °C 29.6in /  1002.7hPa Calm   7mph /  11.3km/h 90% 0in /  0.0mm 0 W/m2
02:02 39 °F /  3.9 °C 36.3 °F /  2.4 °C 29.6in /  1002.7hPa West 0.9mph /  1.4km/h 3mph /  4.8km/h 90% 0in /  0.0mm 0 W/m2
02:07 39 °F /  3.9 °C 36.1 °F /  2.3 °C 29.6in /  1002.7hPa NE 0.9mph /  1.4km/h 1mph /  1.6km/h 89% 0in /  0.0mm 0 W/m2
02:12 39 °F /  3.9 °C 36.1 °F /  2.3 °C 29.6in /  1002.7hPa NW 4mph /  6.4km/h 6mph /  9.7km/h 89% 0in /  0.0mm 0 W/m2
02:17 39.2 °F /  4 °C 36.3 °F /  2.4 °C 29.6in /  1002.7hPa West 6mph /  9.7km/h 6mph /  9.7km/h 89% 0in /  0.0mm 0 W/m2
02:22 39.4 °F /  4.1 °C 36.5 °F /  2.5 °C 29.6in /  1002.7hPa NNW 2mph /  3.2km/h 3mph /  4.8km/h 89% 0in /  0.0mm 0 W/m2
02:27 39.4 °F /  4.1 °C 36.5 °F /  2.5 °C 29.6in /  1002.7hPa WNW 2.9mph /  4.7km/h 3mph /  4.8km/h 89% 0in /  0.0mm 0 W/m2
02:32 39.4 °F /  4.1 °C 36.5 °F /  2.5 °C 29.6in /  1002.7hPa WNW 2mph /  3.2km/h 5mph /  8km/h 89% 0in /  0.0mm 0 W/m2
02:37 39.4 °F /  4.1 °C 36.5 °F /  2.5 °C 29.6in /  1002.7hPa Calm   2mph /  3.2km/h 89% 0in /  0.0mm 0 W/m2
02:42 39.4 °F /  4.1 °C 36.5 °F /  2.5 °C 29.6in /  1002.7hPa SSW 2mph /  3.2km/h 2mph /  3.2km/h 89% 0in /  0.0mm 0 W/m2
02:48 39.4 °F /  4.1 °C 36.5 °F /  2.5 °C 29.6in /  1002.7hPa NW 0.9mph /  1.4km/h 2mph /  3.2km/h 89% 0in /  0.0mm 0 W/m2
02:53 39.4 °F /  4.1 °C 36.5 °F /  2.5 °C 29.6in /  1002.7hPa NW 0.9mph /  1.4km/h 4mph /  6.4km/h 89% 0in /  0.0mm 0 W/m2
02:58 39.4 °F /  4.1 °C 36.5 °F /  2.5 °C 29.6in /  1002.7hPa NW 0.9mph /  1.4km/h 2mph /  3.2km/h 89% 0in /  0.0mm 0 W/m2
03:03 39.4 °F /  4.1 °C 36.5 °F /  2.5 °C 29.6in /  1002.7hPa Calm   2mph /  3.2km/h 89% 0in /  0.0mm 0 W/m2
03:08 39.4 °F /  4.1 °C 36.5 °F /  2.5 °C 29.6in /  1002.7hPa West 6mph /  9.7km/h 6mph /  9.7km/h 89% 0in /  0.0mm 0 W/m2
03:13 39.4 °F /  4.1 °C 36.5 °F /  2.5 °C 29.6in /  1002.4hPa West 0.9mph /  1.4km/h 3mph /  4.8km/h 89% 0in /  0.0mm 0 W/m2
03:18 39.4 °F /  4.1 °C 36.5 °F /  2.5 °C 29.6in /  1002.4hPa Calm   4mph /  6.4km/h 89% 0in /  0.0mm 0 W/m2
03:23 39.4 °F /  4.1 °C 36.7 °F /  2.6 °C 29.6in /  1002.4hPa NW 2mph /  3.2km/h 4mph /  6.4km/h 90% 0in /  0.0mm 0 W/m2
03:28 39.4 °F /  4.1 °C 36.7 °F /  2.6 °C 29.6in /  1002.4hPa WNW 2mph /  3.2km/h 3mph /  4.8km/h 90% 0in /  0.0mm 0 W/m2
03:33 39.2 °F /  4 °C 36.5 °F /  2.5 °C 29.6in /  1002.0hPa West 0.9mph /  1.4km/h 3mph /  4.8km/h 90% 0in /  0.0mm 0 W/m2
03:38 39 °F /  3.9 °C 36.3 °F /  2.4 °C 29.6in /  1002.0hPa SW 4.9mph /  7.9km/h 7mph /  11.3km/h 90% 0in /  0.0mm 0 W/m2
03:43 39 °F /  3.9 °C 36.3 °F /  2.4 °C 29.6in /  1002.0hPa WNW 4.9mph /  7.9km/h 6mph /  9.7km/h 90% 0in /  0.0mm 0 W/m2
03:48 39 °F /  3.9 °C 36.3 °F /  2.4 °C 29.6in /  1002.0hPa WNW 2.9mph /  4.7km/h 5mph /  8km/h 90% 0in /  0.0mm 0 W/m2
03:53 39 °F /  3.9 °C 36.3 °F /  2.4 °C 29.6in /  1002.0hPa NW 2mph /  3.2km/h 6mph /  9.7km/h 90% 0in /  0.0mm 0 W/m2
03:58 38.8 °F /  3.8 °C 36.1 °F /  2.3 °C 29.6in /  1002.0hPa NW 8.1mph /  13km/h 8mph /  12.9km/h 90% 0.02in /  0.5mm 0 W/m2
04:03 38.7 °F /  3.7 °C 36 °F /  2.2 °C 29.6in /  1002.0hPa NW 0.9mph /  1.4km/h 2mph /  3.2km/h 90% 0.02in /  0.5mm 0 W/m2
04:08 38.1 °F /  3.4 °C 35.8 °F /  2.1 °C 29.6in /  1001.7hPa WNW 0.9mph /  1.4km/h 4mph /  6.4km/h 91% 0.03in /  0.8mm 0 W/m2
04:13 37.9 °F /  3.3 °C 35.6 °F /  2 °C 29.6in /  1001.7hPa Calm   2mph /  3.2km/h 91% 0.05in /  1.3mm 0 W/m2
04:18 37.8 °F /  3.2 °C 35.4 °F /  1.9 °C 29.6in /  1001.7hPa WNW 2mph /  3.2km/h 4mph /  6.4km/h 91% 0.05in /  1.3mm 0 W/m2
04:23 37.4 °F /  3 °C 35.2 °F /  1.8 °C 29.6in /  1001.7hPa Calm   4mph /  6.4km/h 92% 0.05in /  1.3mm 0 W/m2
04:28 37.2 °F /  2.9 °C 35.1 °F /  1.7 °C 29.6in /  1001.7hPa WNW 2mph /  3.2km/h 5mph /  8km/h 92% 0.05in /  1.3mm 0 W/m2
04:33 37.2 °F /  2.9 °C 35.1 °F /  1.7 °C 29.6in /  1001.7hPa NW 2mph /  3.2km/h 4mph /  6.4km/h 92% 0.05in /  1.3mm 0 W/m2
04:38 37.2 °F /  2.9 °C 35.4 °F /  1.9 °C 29.6in /  1001.7hPa WNW 2mph /  3.2km/h 3mph /  4.8km/h 93% 0.05in /  1.3mm 0 W/m2
04:43 37.2 °F /  2.9 °C 35.4 °F /  1.9 °C 29.6in /  1001.7hPa West 2.9mph /  4.7km/h 3mph /  4.8km/h 93% 0.05in /  1.3mm 0 W/m2
04:48 37.2 °F /  2.9 °C 35.4 °F /  1.9 °C 29.6in /  1001.7hPa WNW 0.9mph /  1.4km/h 2mph /  3.2km/h 93% 0.05in /  1.3mm 0 W/m2
04:53 37.4 °F /  3 °C 35.6 °F /  2 °C 29.6in /  1001.7hPa East 0.9mph /  1.4km/h 1mph /  1.6km/h 93% 0.05in /  1.3mm 0 W/m2
04:58 37.4 °F /  3 °C 35.6 °F /  2 °C 29.6in /  1001.7hPa Calm   3mph /  4.8km/h 93% 0.03in /  0.8mm 0 W/m2
05:03 37.6 °F /  3.1 °C 35.8 °F /  2.1 °C 29.6in /  1001.7hPa Calm   2mph /  3.2km/h 93% 0.03in /  0.8mm 0 W/m2
05:08 37.6 °F /  3.1 °C 35.8 °F /  2.1 °C 29.6in /  1001.4hPa Calm   4mph /  6.4km/h 93% 0.02in /  0.5mm 0 W/m2
05:13 37.6 °F /  3.1 °C 36 °F /  2.2 °C 29.6in /  1001.7hPa WSW 2mph /  3.2km/h 6mph /  9.7km/h 94% 0.01in /  0.2mm 0 W/m2
05:18 37.8 °F /  3.2 °C 36 °F /  2.2 °C 29.6in /  1001.4hPa Calm   1mph /  1.6km/h 93% 0.01in /  0.2mm 0 W/m2
05:23 37.8 °F /  3.2 °C 36 °F /  2.2 °C 29.6in /  1001.4hPa NW 2.9mph /  4.7km/h 3mph /  4.8km/h 93% 0.01in /  0.2mm 0 W/m2
05:28 37.8 °F /  3.2 °C 36 °F /  2.2 °C 29.6in /  1001.4hPa Calm   2mph /  3.2km/h 93% 0.01in /  0.2mm 0 W/m2
05:33 37.8 °F /  3.2 °C 36 °F /  2.2 °C 29.6in /  1001.4hPa Calm   3mph /  4.8km/h 93% 0.01in /  0.2mm 0 W/m2
05:38 37.8 °F /  3.2 °C 36 °F /  2.2 °C 29.6in /  1001.4hPa Calm     93% 0.01in /  0.2mm 0 W/m2
05:43 37.8 °F /  3.2 °C 36 °F /  2.2 °C 29.6in /  1001.4hPa NW 0.9mph /  1.4km/h 1mph /  1.6km/h 93% 0.01in /  0.2mm 0 W/m2
05:48 37.8 °F /  3.2 °C 36 °F /  2.2 °C 29.6in /  1001.4hPa West 2mph /  3.2km/h 3mph /  4.8km/h 93% 0.01in /  0.2mm 0 W/m2
05:53 37.8 °F /  3.2 °C 36.1 °F /  2.3 °C 29.6in /  1001.4hPa WNW 0.9mph /  1.4km/h 2mph /  3.2km/h 94% 0.01in /  0.2mm 0 W/m2
05:58 37.8 °F /  3.2 °C 36.1 °F /  2.3 °C 29.6in /  1001.4hPa West 0.9mph /  1.4km/h 7mph /  11.3km/h 94% 0.01in /  0.2mm 0 W/m2
06:03 37.9 °F /  3.3 °C 36.3 °F /  2.4 °C 29.6in /  1001.4hPa West 0.9mph /  1.4km/h 2mph /  3.2km/h 94% 0in /  0.0mm 0 W/m2
06:08 37.9 °F /  3.3 °C 36.3 °F /  2.4 °C 29.6in /  1001.4hPa Calm   5mph /  8km/h 94% 0in /  0.0mm 0 W/m2
06:13 37.9 °F /  3.3 °C 36.1 °F /  2.3 °C 29.6in /  1001.4hPa NE 2.9mph /  4.7km/h 3mph /  4.8km/h 93% 0in /  0.0mm 0 W/m2
06:18 37.9 °F /  3.3 °C 36.1 °F /  2.3 °C 29.6in /  1001.4hPa ENE 0.9mph /  1.4km/h 4mph /  6.4km/h 93% 0in /  0.0mm 0 W/m2
06:23 37.9 °F /  3.3 °C 36.1 °F /  2.3 °C 29.6in /  1001.4hPa Calm   2mph /  3.2km/h 93% 0in /  0.0mm 0 W/m2
06:28 37.9 °F /  3.3 °C 36.1 °F /  2.3 °C 29.6in /  1001.4hPa WNW 0.9mph /  1.4km/h 3mph /  4.8km/h 93% 0in /  0.0mm 0 W/m2
06:33 38.1 °F /  3.4 °C 36.3 °F /  2.4 °C 29.6in /  1001.4hPa NW 0.9mph /  1.4km/h 2mph /  3.2km/h 93% 0in /  0.0mm 0 W/m2
06:38 38.1 °F /  3.4 °C 36.3 °F /  2.4 °C 29.6in /  1001.4hPa Calm     93% 0in /  0.0mm 0 W/m2
06:43 38.1 °F /  3.4 °C 36.3 °F /  2.4 °C 29.6in /  1001.4hPa Calm   2mph /  3.2km/h 93% 0in /  0.0mm 0 W/m2
06:48 38.1 °F /  3.4 °C 36.3 °F /  2.4 °C 29.6in /  1001.4hPa Calm   3mph /  4.8km/h 93% 0in /  0.0mm 0 W/m2
06:53 38.1 °F /  3.4 °C 36.3 °F /  2.4 °C 29.6in /  1001.7hPa NW 2.9mph /  4.7km/h 4mph /  6.4km/h 93% 0in /  0.0mm 0 W/m2
06:58 38.1 °F /  3.4 °C 36.3 °F /  2.4 °C 29.6in /  1001.7hPa South 4.9mph /  7.9km/h 7mph /  11.3km/h 93% 0in /  0.0mm 0 W/m2
07:03 38.1 °F /  3.4 °C 36 °F /  2.2 °C 29.6in /  1001.4hPa WNW 0.9mph /  1.4km/h 3mph /  4.8km/h 92% 0in /  0.0mm 0 W/m2
07:08 38.1 °F /  3.4 °C 36 °F /  2.2 °C 29.6in /  1001.4hPa NW 7mph /  11.3km/h 7mph /  11.3km/h 92% 0in /  0.0mm 0 W/m2
07:13 38.1 °F /  3.4 °C 36 °F /  2.2 °C 29.6in /  1001.4hPa Calm   1mph /  1.6km/h 92% 0in /  0.0mm 0 W/m2
07:18 38.1 °F /  3.4 °C 36 °F /  2.2 °C 29.6in /  1001.4hPa Calm   4mph /  6.4km/h 92% 0in /  0.0mm 0 W/m2
07:23 38.1 °F /  3.4 °C 36 °F /  2.2 °C 29.6in /  1001.4hPa SSE 0.9mph /  1.4km/h 3mph /  4.8km/h 92% 0in /  0.0mm 0 W/m2
07:28 38.1 °F /  3.4 °C 36 °F /  2.2 °C 29.6in /  1001.4hPa Calm   4mph /  6.4km/h 92% 0in /  0.0mm 0 W/m2
07:33 38.1 °F /  3.4 °C 36 °F /  2.2 °C 29.6in /  1001.4hPa NW 2mph /  3.2km/h 3mph /  4.8km/h 92% 0in /  0.0mm 0 W/m2
07:38 38.1 °F /  3.4 °C 36 °F /  2.2 °C 29.6in /  1001.4hPa SW 0.9mph /  1.4km/h 7mph /  11.3km/h 92% 0in /  0.0mm 0 W/m2
07:43 38.1 °F /  3.4 °C 36 °F /  2.2 °C 29.6in /  1001.4hPa WSW 2mph /  3.2km/h 2mph /  3.2km/h 92% 0in /  0.0mm 0 W/m2
07:48 38.1 °F /  3.4 °C 36 °F /  2.2 °C 29.6in /  1001.4hPa West 2mph /  3.2km/h 7mph /  11.3km/h 92% 0in /  0.0mm 0 W/m2
07:53 38.3 °F /  3.5 °C 36.1 °F /  2.3 °C 29.6in /  1001.4hPa NW 0.9mph /  1.4km/h 2mph /  3.2km/h 92% 0in /  0.0mm 0 W/m2
07:58 38.3 °F /  3.5 °C 36.1 °F /  2.3 °C 29.6in /  1001.4hPa Calm   2mph /  3.2km/h 92% 0in /  0.0mm 0 W/m2
08:03 38.3 °F /  3.5 °C 36.1 °F /  2.3 °C 29.6in /  1001.4hPa Calm   4mph /  6.4km/h 92% 0in /  0.0mm 0 W/m2
08:08 38.3 °F /  3.5 °C 36 °F /  2.2 °C 29.6in /  1001.4hPa Calm   1mph /  1.6km/h 91% 0in /  0.0mm 0 W/m2
08:13 38.1 °F /  3.4 °C 35.8 °F /  2.1 °C 29.6in /  1001.4hPa Calm   2mph /  3.2km/h 91% 0in /  0.0mm 0 W/m2
08:18 38.1 °F /  3.4 °C 36 °F /  2.2 °C 29.6in /  1001.4hPa NNW 2.9mph /  4.7km/h 3mph /  4.8km/h 92% 0in /  0.0mm 0 W/m2
08:23 38.1 °F /  3.4 °C 36 °F /  2.2 °C 29.6in /  1001.4hPa Calm   2mph /  3.2km/h 92% 0in /  0.0mm 5 W/m2
08:28 38.1 °F /  3.4 °C 35.8 °F /  2.1 °C 29.6in /  1001.4hPa Calm   1mph /  1.6km/h 91% 0in /  0.0mm 5 W/m2
08:33 38.3 °F /  3.5 °C 36.1 °F /  2.3 °C 29.6in /  1001.4hPa Calm   2mph /  3.2km/h 92% 0in /  0.0mm 5 W/m2
08:38 38.1 °F /  3.4 °C 35.8 °F /  2.1 °C 29.6in /  1001.7hPa East 0.9mph /  1.4km/h 1mph /  1.6km/h 91% 0in /  0.0mm 7 W/m2
08:43 38.3 °F /  3.5 °C 36 °F /  2.2 °C 29.6in /  1001.7hPa NE 0.9mph /  1.4km/h 4mph /  6.4km/h 91% 0in /  0.0mm 7 W/m2
08:48 38.3 °F /  3.5 °C 36 °F /  2.2 °C 29.6in /  1001.7hPa ESE 2mph /  3.2km/h 4mph /  6.4km/h 91% 0in /  0.0mm 5 W/m2
08:53 38.5 °F /  3.6 °C 36.1 °F /  2.3 °C 29.6in /  1001.7hPa Calm     91% 0in /  0.0mm 5 W/m2
08:58 38.5 °F /  3.6 °C 36.1 °F /  2.3 °C 29.6in /  1001.7hPa ESE 0.9mph /  1.4km/h 4mph /  6.4km/h 91% 0in /  0.0mm 7 W/m2
09:03 38.3 °F /  3.5 °C 36.1 °F /  2.3 °C 29.6in /  1002.0hPa SE 0.9mph /  1.4km/h 2mph /  3.2km/h 92% 0in /  0.0mm 7 W/m2
09:08 38.3 °F /  3.5 °C 36.1 °F /  2.3 °C 29.6in /  1002.0hPa Calm   3mph /  4.8km/h 92% 0in /  0.0mm 9 W/m2
09:13 38.3 °F /  3.5 °C 36.1 °F /  2.3 °C 29.6in /  1001.7hPa Calm     92% 0in /  0.0mm 11 W/m2
09:18 38.3 °F /  3.5 °C 36.1 °F /  2.3 °C 29.6in /  1001.7hPa WNW 0.9mph /  1.4km/h 3mph /  4.8km/h 92% 0in /  0.0mm 11 W/m2
09:23 38.3 °F /  3.5 °C 36.1 °F /  2.3 °C 29.6in /  1001.7hPa NE 2mph /  3.2km/h 2mph /  3.2km/h 92% 0in /  0.0mm 12 W/m2
09:28 38.3 °F /  3.5 °C 36.1 °F /  2.3 °C 29.6in /  1001.7hPa NE 0.9mph /  1.4km/h 1mph /  1.6km/h 92% 0in /  0.0mm 14 W/m2
09:34 38.3 °F /  3.5 °C 36.1 °F /  2.3 °C 29.6in /  1001.7hPa Calm     92% 0in /  0.0mm 16 W/m2
09:39 38.5 °F /  3.6 °C 36.3 °F /  2.4 °C 29.6in /  1001.7hPa Calm     92% 0in /  0.0mm 16 W/m2
09:44 38.5 °F /  3.6 °C 36.3 °F /  2.4 °C 29.6in /  1001.7hPa Calm   2mph /  3.2km/h 92% 0in /  0.0mm 21 W/m2
09:49 38.5 °F /  3.6 °C 36.7 °F /  2.6 °C 29.6in /  1001.7hPa Calm   1mph /  1.6km/h 93% 0in /  0.0mm 25 W/m2
09:54 38.5 °F /  3.6 °C 36.3 °F /  2.4 °C 29.6in /  1001.7hPa ESE 0.9mph /  1.4km/h 4mph /  6.4km/h 92% 0in /  0.0mm 33 W/m2
09:59 38.7 °F /  3.7 °C 36.9 °F /  2.7 °C 29.6in /  1001.7hPa ENE 0.9mph /  1.4km/h 1mph /  1.6km/h 93% 0in /  0.0mm 54 W/m2
10:04 38.7 °F /  3.7 °C 36.9 °F /  2.7 °C 29.6in /  1001.7hPa NNE 2mph /  3.2km/h 4mph /  6.4km/h 93% 0in /  0.0mm 47 W/m2
10:09 38.7 °F /  3.7 °C 36.9 °F /  2.7 °C 29.6in /  1001.7hPa East 0.9mph /  1.4km/h 3mph /  4.8km/h 93% 0.01in /  0.2mm 105 W/m2
10:14 38.7 °F /  3.7 °C 36.9 °F /  2.7 °C 29.6in /  1002.0hPa East 2mph /  3.2km/h 4mph /  6.4km/h 93% 0.01in /  0.2mm 84 W/m2
10:19 38.8 °F /  3.8 °C 37 °F /  2.8 °C 29.6in /  1002.0hPa ENE 2.9mph /  4.7km/h 4mph /  6.4km/h 93% 0.01in /  0.2mm 77 W/m2
10:24 38.8 °F /  3.8 °C 37 °F /  2.8 °C 29.6in /  1002.0hPa NE 2.9mph /  4.7km/h 3mph /  4.8km/h 93% 0.01in /  0.2mm 114 W/m2
10:29 39 °F /  3.9 °C 37.2 °F /  2.9 °C 29.6in /  1002.0hPa ENE 2mph /  3.2km/h 3mph /  4.8km/h 93% 0.01in /  0.2mm 97 W/m2
10:34 39 °F /  3.9 °C 37.2 °F /  2.9 °C 29.6in /  1002.0hPa NE 2mph /  3.2km/h 2mph /  3.2km/h 93% 0.01in /  0.2mm 86 W/m2
10:39 39.2 °F /  4 °C 37.4 °F /  3 °C 29.6in /  1002.0hPa WSW 0.9mph /  1.4km/h 4mph /  6.4km/h 93% 0.01in /  0.2mm 109 W/m2
10:44 39.4 °F /  4.1 °C 37.6 °F /  3.1 °C 29.6in /  1002.0hPa WSW 0.9mph /  1.4km/h 2mph /  3.2km/h 93% 0.01in /  0.2mm 40 W/m2
10:49 39.4 °F /  4.1 °C 37.2 °F /  2.9 °C 29.6in /  1001.7hPa NW 4mph /  6.4km/h 4mph /  6.4km/h 92% 0.01in /  0.2mm 47 W/m2
10:54 39.4 °F /  4.1 °C 37.2 °F /  2.9 °C 29.6in /  1002.0hPa NE 2.9mph /  4.7km/h 4mph /  6.4km/h 92% 0.01in /  0.2mm 42 W/m2
10:59 39.4 °F /  4.1 °C 37.2 °F /  2.9 °C 29.6in /  1002.0hPa Calm     92% 0.01in /  0.2mm 54 W/m2
11:04 39.4 °F /  4.1 °C 37.2 °F /  2.9 °C 29.6in /  1002.0hPa NE 0.9mph /  1.4km/h 3mph /  4.8km/h 92% 0.01in /  0.2mm 40 W/m2
11:09 39.4 °F /  4.1 °C 37.2 °F /  2.9 °C 29.6in /  1002.0hPa NE 0.9mph /  1.4km/h 2mph /  3.2km/h 92% 0in /  0.0mm 46 W/m2
11:14 39.4 °F /  4.1 °C 37 °F /  2.8 °C 29.6in /  1002.0hPa NE 0.9mph /  1.4km/h 3mph /  4.8km/h 91% 0in /  0.0mm 79 W/m2
11:19 39.6 °F /  4.2 °C 37.2 °F /  2.9 °C 29.6in /  1002.0hPa Calm   3mph /  4.8km/h 91% 0in /  0.0mm 83 W/m2
11:24 39.7 °F /  4.3 °C 37 °F /  2.8 °C 29.6in /  1002.0hPa East 0.9mph /  1.4km/h 5mph /  8km/h 90% 0in /  0.0mm 65 W/m2
11:29 39.9 °F /  4.4 °C 37.2 °F /  2.9 °C 29.6in /  1002.0hPa NE 2mph /  3.2km/h 3mph /  4.8km/h 90% 0in /  0.0mm 51 W/m2
11:34 40.1 °F /  4.5 °C 37 °F /  2.8 °C 29.6in /  1001.7hPa NNW 2mph /  3.2km/h 7mph /  11.3km/h 89% 0in /  0.0mm 60 W/m2
11:39 40.3 °F /  4.6 °C 37 °F /  2.8 °C 29.6in /  1001.7hPa ENE 2mph /  3.2km/h 7mph /  11.3km/h 88% 0in /  0.0mm 105 W/m2
11:44 40.3 °F /  4.6 °C 36.7 °F /  2.6 °C 29.6in /  1002.0hPa ENE 6mph /  9.7km/h 11mph /  17.7km/h 87% 0in /  0.0mm 86 W/m2
11:49 40.5 °F /  4.7 °C 36.7 °F /  2.6 °C 29.6in /  1001.7hPa Calm   3mph /  4.8km/h 86% 0in /  0.0mm 151 W/m2
11:54 40.6 °F /  4.8 °C 36.9 °F /  2.7 °C 29.6in /  1001.7hPa NNE 2mph /  3.2km/h 11mph /  17.7km/h 86% 0in /  0.0mm 113 W/m2
11:59 40.6 °F /  4.8 °C 36.9 °F /  2.7 °C 29.6in /  1001.7hPa Calm   3mph /  4.8km/h 86% 0in /  0.0mm 128 W/m2
12:04 40.8 °F /  4.9 °C 37 °F /  2.8 °C 29.6in /  1001.7hPa Calm   4mph /  6.4km/h 86% 0in /  0.0mm 155 W/m2
12:09 40.8 °F /  4.9 °C 37.2 °F /  2.9 °C 29.6in /  1001.7hPa NE 2mph /  3.2km/h 3mph /  4.8km/h 87% 0in /  0.0mm 113 W/m2
12:14 41 °F /  5 °C 37.2 °F /  2.9 °C 29.6in /  1001.7hPa NE 2mph /  3.2km/h 3mph /  4.8km/h 86% 0in /  0.0mm 90 W/m2
12:19 41.2 °F /  5.1 °C 37.4 °F /  3 °C 29.6in /  1001.7hPa NW 2mph /  3.2km/h 4mph /  6.4km/h 86% 0in /  0.0mm 88 W/m2
12:24 41.2 °F /  5.1 °C 37.4 °F /  3 °C 29.6in /  1001.7hPa NNW 0.9mph /  1.4km/h 3mph /  4.8km/h 86% 0in /  0.0mm 139 W/m2
12:29 41.2 °F /  5.1 °C 37.4 °F /  3 °C 29.6in /  1001.7hPa NNW 0.9mph /  1.4km/h 1mph /  1.6km/h 86% 0in /  0.0mm 127 W/m2
12:34 41.4 °F /  5.2 °C 37.8 °F /  3.2 °C 29.6in /  1001.7hPa NW 2.9mph /  4.7km/h 4mph /  6.4km/h 87% 0in /  0.0mm 153 W/m2
12:39 41.2 °F /  5.1 °C 37.4 °F /  3 °C 29.6in /  1001.7hPa Calm   7mph /  11.3km/h 86% 0in /  0.0mm 116 W/m2
12:44 41.2 °F /  5.1 °C 37.4 °F /  3 °C 29.6in /  1001.7hPa NW 0.9mph /  1.4km/h 2mph /  3.2km/h 86% 0in /  0.0mm 72 W/m2
12:49 41.2 °F /  5.1 °C 37.4 °F /  3 °C 29.6in /  1001.7hPa North 0.9mph /  1.4km/h 7mph /  11.3km/h 86% 0in /  0.0mm 49 W/m2
12:54 41.2 °F /  5.1 °C 37.4 °F /  3 °C 29.6in /  1001.7hPa NW 0.9mph /  1.4km/h 7mph /  11.3km/h 86% 0in /  0.0mm 69 W/m2
12:59 41 °F /  5 °C 37.2 °F /  2.9 °C 29.6in /  1001.7hPa WSW 0.9mph /  1.4km/h 4mph /  6.4km/h 86% 0in /  0.0mm 56 W/m2
13:04 41 °F /  5 °C 37.2 °F /  2.9 °C 29.6in /  1001.7hPa NNE 0.9mph /  1.4km/h 6mph /  9.7km/h 86% 0in /  0.0mm 69 W/m2
13:09 40.8 °F /  4.9 °C 37.2 °F /  2.9 °C 29.6in /  1001.7hPa NW 2mph /  3.2km/h 4mph /  6.4km/h 87% 0in /  0.0mm 93 W/m2
13:14 40.8 °F /  4.9 °C 37.6 °F /  3.1 °C 29.6in /  1001.7hPa North 2mph /  3.2km/h 2mph /  3.2km/h 88% 0in /  0.0mm 67 W/m2
13:19 40.6 °F /  4.8 °C 37.4 °F /  3 °C 29.6in /  1001.7hPa WNW 2.9mph /  4.7km/h 7mph /  11.3km/h 88% 0in /  0.0mm 56 W/m2
13:24 40.5 °F /  4.7 °C 37.2 °F /  2.9 °C 29.6in /  1001.7hPa NW 2mph /  3.2km/h 3mph /  4.8km/h 88% 0in /  0.0mm 100 W/m2
13:29 40.5 °F /  4.7 °C 37.4 °F /  3 °C 29.6in /  1001.7hPa NW 0.9mph /  1.4km/h 7mph /  11.3km/h 89% 0in /  0.0mm 114 W/m2
13:34 40.5 °F /  4.7 °C 37.8 °F /  3.2 °C 29.6in /  1001.7hPa NNE 2.9mph /  4.7km/h 3mph /  4.8km/h 90% 0in /  0.0mm 83 W/m2
13:39 40.5 °F /  4.7 °C 37.8 °F /  3.2 °C 29.6in /  1001.7hPa Calm   3mph /  4.8km/h 90% 0in /  0.0mm 84 W/m2
13:44 40.5 °F /  4.7 °C 37.8 °F /  3.2 °C 29.6in /  1001.7hPa Calm   6mph /  9.7km/h 90% 0in /  0.0mm 53 W/m2
13:49 40.3 °F /  4.6 °C 37.6 °F /  3.1 °C 29.6in /  1001.7hPa Calm   2mph /  3.2km/h 90% 0.01in /  0.2mm 79 W/m2
13:54 40.1 °F /  4.5 °C 37.4 °F /  3 °C 29.6in /  1001.7hPa NNW 0.9mph /  1.4km/h 2mph /  3.2km/h 90% 0.01in /  0.2mm 56 W/m2
13:59 40.1 °F /  4.5 °C 37.4 °F /  3 °C 29.6in /  1001.7hPa North 2mph /  3.2km/h 2mph /  3.2km/h 90% 0.01in /  0.2mm 44 W/m2
14:04 39.9 °F /  4.4 °C 37.2 °F /  2.9 °C 29.6in /  1002.0hPa NE 2mph /  3.2km/h 3mph /  4.8km/h 90% 0.01in /  0.2mm 53 W/m2
14:09 39.9 °F /  4.4 °C 37.2 °F /  2.9 °C 29.6in /  1002.0hPa SSE 4mph /  6.4km/h 4mph /  6.4km/h 90% 0.01in /  0.2mm 54 W/m2
14:14 39.7 °F /  4.3 °C 37 °F /  2.8 °C 29.6in /  1002.0hPa ENE 2mph /  3.2km/h 3mph /  4.8km/h 90% 0.02in /  0.5mm 53 W/m2
14:19 39.6 °F /  4.2 °C 36.9 °F /  2.7 °C 29.6in /  1002.0hPa WNW 4mph /  6.4km/h 4mph /  6.4km/h 90% 0.02in /  0.5mm 53 W/m2
14:24 39.4 °F /  4.1 °C 37 °F /  2.8 °C 29.6in /  1002.0hPa Calm   2mph /  3.2km/h 91% 0.02in /  0.5mm 54 W/m2
14:29 39.4 °F /  4.1 °C 37 °F /  2.8 °C 29.6in /  1002.0hPa Calm     91% 0.02in /  0.5mm 46 W/m2
14:34 39.4 °F /  4.1 °C 37 °F /  2.8 °C 29.6in /  1002.0hPa Calm     91% 0.02in /  0.5mm 42 W/m2
14:39 39.4 °F /  4.1 °C 37 °F /  2.8 °C 29.6in /  1002.0hPa Calm   1mph /  1.6km/h 91% 0.02in /  0.5mm 32 W/m2
14:44 39.4 °F /  4.1 °C 37.2 °F /  2.9 °C 29.6in /  1002.0hPa WNW 2.9mph /  4.7km/h 3mph /  4.8km/h 92% 0.02in /  0.5mm 46 W/m2
14:49 39.2 °F /  4 °C 37 °F /  2.8 °C 29.6in /  1002.0hPa WNW 0.9mph /  1.4km/h 3mph /  4.8km/h 92% 0.02in /  0.5mm 35 W/m2
14:54 39 °F /  3.9 °C 36.9 °F /  2.7 °C 29.6in /  1002.0hPa Calm     92% 0.02in /  0.5mm 32 W/m2
14:59 39 °F /  3.9 °C 36.9 °F /  2.7 °C 29.6in /  1002.0hPa ENE 2mph /  3.2km/h 3mph /  4.8km/h 92% 0.02in /  0.5mm 28 W/m2
15:04 39 °F /  3.9 °C 36.9 °F /  2.7 °C 29.6in /  1002.4hPa WNW 2mph /  3.2km/h 5mph /  8km/h 92% 0.02in /  0.5mm 28 W/m2
15:09 38.8 °F /  3.8 °C 36.7 °F /  2.6 °C 29.6in /  1002.4hPa NW 2mph /  3.2km/h 2mph /  3.2km/h 92% 0.03in /  0.8mm 32 W/m2
15:14 38.8 °F /  3.8 °C 36.7 °F /  2.6 °C 29.6in /  1002.4hPa SW 0.9mph /  1.4km/h 4mph /  6.4km/h 92% 0.02in /  0.5mm 35 W/m2
15:19 38.7 °F /  3.7 °C 36.5 °F /  2.5 °C 29.6in /  1002.4hPa Calm   3mph /  4.8km/h 92% 0.02in /  0.5mm 35 W/m2
15:24 38.7 °F /  3.7 °C 36.5 °F /  2.5 °C 29.6in /  1002.4hPa Calm   3mph /  4.8km/h 92% 0.02in /  0.5mm 40 W/m2
15:29 38.5 °F /  3.6 °C 36.3 °F /  2.4 °C 29.6in /  1002.7hPa Calm   2mph /  3.2km/h 92% 0.03in /  0.8mm 42 W/m2
15:34 38.5 °F /  3.6 °C 36.3 °F /  2.4 °C 29.6in /  1002.7hPa Calm   3mph /  4.8km/h 92% 0.02in /  0.5mm 33 W/m2
15:39 38.5 °F /  3.6 °C 36.3 °F /  2.4 °C 29.6in /  1002.7hPa Calm     92% 0.02in /  0.5mm 26 W/m2
15:44 38.5 °F /  3.6 °C 36.7 °F /  2.6 °C 29.6in /  1003.0hPa Calm   3mph /  4.8km/h 93% 0.02in /  0.5mm 25 W/m2
15:49 38.5 °F /  3.6 °C 36.7 °F /  2.6 °C 29.6in /  1003.0hPa WNW 0.9mph /  1.4km/h 2mph /  3.2km/h 93% 0.02in /  0.5mm 21 W/m2
15:54 38.3 °F /  3.5 °C 36.5 °F /  2.5 °C 29.6in /  1003.0hPa Calm   2mph /  3.2km/h 93% 0.02in /  0.5mm 18 W/m2
15:59 38.1 °F /  3.4 °C 36.3 °F /  2.4 °C 29.6in /  1003.0hPa Calm   4mph /  6.4km/h 93% 0.02in /  0.5mm 14 W/m2
16:04 38.1 °F /  3.4 °C 36.3 °F /  2.4 °C 29.6in /  1003.0hPa Calm   1mph /  1.6km/h 93% 0.02in /  0.5mm 12 W/m2
16:09 38.1 °F /  3.4 °C 36.3 °F /  2.4 °C 29.6in /  1003.0hPa West 0.9mph /  1.4km/h 4mph /  6.4km/h 93% 0.02in /  0.5mm 19 W/m2
16:14 37.9 °F /  3.3 °C 36.1 °F /  2.3 °C 29.6in /  1003.4hPa West 0.9mph /  1.4km/h 1mph /  1.6km/h 93% 0.02in /  0.5mm 21 W/m2
16:19 37.9 °F /  3.3 °C 36.1 °F /  2.3 °C 29.6in /  1003.4hPa WNW 0.9mph /  1.4km/h 3mph /  4.8km/h 93% 0.02in /  0.5mm 14 W/m2
16:24 37.9 °F /  3.3 °C 36.1 °F /  2.3 °C 29.6in /  1003.4hPa Calm     93% 0.02in /  0.5mm 9 W/m2
16:29 37.9 °F /  3.3 °C 36.1 °F /  2.3 °C 29.6in /  1003.4hPa Calm     93% 0.01in /  0.2mm 5 W/m2
16:34 37.8 °F /  3.2 °C 36 °F /  2.2 °C 29.6in /  1003.4hPa Calm   1mph /  1.6km/h 93% 0.01in /  0.2mm 0 W/m2
16:39 37.8 °F /  3.2 °C 36 °F /  2.2 °C 29.6in /  1003.4hPa Calm     93% 0.01in /  0.2mm 0 W/m2
16:44 37.6 °F /  3.1 °C 35.8 °F /  2.1 °C 29.6in /  1003.7hPa Calm     93% 0.01in /  0.2mm 0 W/m2
16:49 37.4 °F /  3 °C 35.6 °F /  2 °C 29.6in /  1003.7hPa Calm   1mph /  1.6km/h 93% 0.01in /  0.2mm 0 W/m2
16:54 37.2 °F /  2.9 °C 35.4 °F /  1.9 °C 29.6in /  1003.7hPa Calm     93% 0in /  0.0mm 0 W/m2
16:59 37.2 °F /  2.9 °C 35.6 °F /  2 °C 29.7in /  1004.1hPa Calm   1mph /  1.6km/h 94% 0in /  0.0mm 0 W/m2
17:04 37.2 °F /  2.9 °C 35.6 °F /  2 °C 29.7in /  1004.1hPa Calm     94% 0in /  0.0mm 0 W/m2
17:09 37.2 °F /  2.9 °C 35.6 °F /  2 °C 29.7in /  1004.1hPa Calm     94% 0in /  0.0mm 0 W/m2
17:14 37.2 °F /  2.9 °C 35.6 °F /  2 °C 29.7in /  1004.1hPa Calm     94% 0in /  0.0mm 0 W/m2
17:19 37.2 °F /  2.9 °C 35.6 °F /  2 °C 29.7in /  1004.1hPa Calm     94% 0in /  0.0mm 0 W/m2
17:24 37.2 °F /  2.9 °C 35.6 °F /  2 °C 29.7in /  1004.1hPa Calm     94% 0in /  0.0mm 0 W/m2
17:29 37 °F /  2.8 °C 35.4 °F /  1.9 °C 29.7in /  1004.4hPa Calm     94% 0in /  0.0mm 0 W/m2
17:34 37 °F /  2.8 °C 35.8 °F /  2.1 °C 29.7in /  1004.4hPa Calm     95% 0in /  0.0mm 0 W/m2
17:39 37 °F /  2.8 °C 35.4 °F /  1.9 °C 29.7in /  1004.4hPa Calm     94% 0in /  0.0mm 0 W/m2
17:45 37 °F /  2.8 °C 35.8 °F /  2.1 °C 29.7in /  1004.4hPa Calm     95% 0in /  0.0mm 0 W/m2
17:50 37 °F /  2.8 °C 35.8 °F /  2.1 °C 29.7in /  1004.4hPa Calm     95% 0in /  0.0mm 0 W/m2
17:55 37 °F /  2.8 °C 35.8 °F /  2.1 °C 29.7in /  1004.4hPa Calm     95% 0in /  0.0mm 0 W/m2
18:00 37 °F /  2.8 °C 35.8 °F /  2.1 °C 29.7in /  1004.4hPa Calm     95% 0in /  0.0mm 0 W/m2
18:05 37 °F /  2.8 °C 35.8 °F /  2.1 °C 29.7in /  1004.7hPa Calm     95% 0in /  0.0mm 0 W/m2
18:10 37 °F /  2.8 °C 35.8 °F /  2.1 °C 29.7in /  1004.7hPa Calm     95% 0in /  0.0mm 0 W/m2
18:15 36.9 °F /  2.7 °C 35.6 °F /  2 °C 29.7in /  1004.7hPa Calm     95% 0in /  0.0mm 0 W/m2
18:20 36.7 °F /  2.6 °C 35.4 °F /  1.9 °C 29.7in /  1004.7hPa Calm     95% 0in /  0.0mm 0 W/m2
18:25 36.5 °F /  2.5 °C 35.2 °F /  1.8 °C 29.7in /  1004.7hPa Calm     95% 0in /  0.0mm 0 W/m2
18:30 36.3 °F /  2.4 °C 35.1 °F /  1.7 °C 29.7in /  1004.7hPa Calm     95% 0in /  0.0mm 0 W/m2
18:35 36.1 °F /  2.3 °C 34.9 °F /  1.6 °C 29.7in /  1004.7hPa Calm     95% 0in /  0.0mm 0 W/m2
18:40 36.1 °F /  2.3 °C 34.9 °F /  1.6 °C 29.7in /  1005.1hPa Calm     95% 0in /  0.0mm 0 W/m2
18:45 36.1 °F /  2.3 °C 34.9 °F /  1.6 °C 29.7in /  1005.1hPa Calm     95% 0in /  0.0mm 0 W/m2
18:50 36.1 °F /  2.3 °C 34.9 °F /  1.6 °C 29.7in /  1005.1hPa Calm     95% 0in /  0.0mm 0 W/m2
18:55 36.1 °F /  2.3 °C 34.9 °F /  1.6 °C 29.7in /  1005.1hPa Calm     95% 0in /  0.0mm 0 W/m2
19:00 36.1 °F /  2.3 °C 34.9 °F /  1.6 °C 29.7in /  1005.1hPa NNW 0.9mph /  1.4km/h 1mph /  1.6km/h 95% 0in /  0.0mm 0 W/m2
19:05 36.3 °F /  2.4 °C 35.1 °F /  1.7 °C 29.7in /  1005.4hPa Calm     95% 0in /  0.0mm 0 W/m2
19:10 36.3 °F /  2.4 °C 35.2 °F /  1.8 °C 29.7in /  1005.4hPa Calm     96% 0in /  0.0mm 0 W/m2
19:15 36.5 °F /  2.5 °C 35.4 °F /  1.9 °C 29.7in /  1005.4hPa Calm     96% 0in /  0.0mm 0 W/m2
19:20 36.5 °F /  2.5 °C 35.4 °F /  1.9 °C 29.7in /  1005.4hPa Calm     96% 0in /  0.0mm 0 W/m2
19:25 36.7 °F /  2.6 °C 35.6 °F /  2 °C 29.7in /  1005.8hPa Calm     96% 0in /  0.0mm 0 W/m2
19:30 36.5 °F /  2.5 °C 35.4 °F /  1.9 °C 29.7in /  1005.8hPa Calm   2mph /  3.2km/h 96% 0in /  0.0mm 0 W/m2
19:35 36.3 °F /  2.4 °C 35.1 °F /  1.7 °C 29.7in /  1005.8hPa Calm     95% 0in /  0.0mm 0 W/m2
19:40 36.3 °F /  2.4 °C 35.1 °F /  1.7 °C 29.7in /  1005.8hPa Calm   2mph /  3.2km/h 95% 0in /  0.0mm 0 W/m2
19:45 36.1 °F /  2.3 °C 34.9 °F /  1.6 °C 29.7in /  1005.8hPa Calm     95% 0in /  0.0mm 0 W/m2
19:50 36.1 °F /  2.3 °C 34.9 °F /  1.6 °C 29.7in /  1005.8hPa Calm     95% 0in /  0.0mm 0 W/m2
19:55 36.1 °F /  2.3 °C 34.9 °F /  1.6 °C 29.7in /  1005.8hPa Calm     95% 0in /  0.0mm 0 W/m2
20:00 36 °F /  2.2 °C 34.9 °F /  1.6 °C 29.7in /  1006.1hPa Calm     96% 0in /  0.0mm 0 W/m2
20:05 36 °F /  2.2 °C 34.9 °F /  1.6 °C 29.7in /  1006.1hPa Calm     96% 0in /  0.0mm 0 W/m2
20:10 36 °F /  2.2 °C 34.7 °F /  1.5 °C 29.7in /  1006.1hPa Calm     95% 0in /  0.0mm 0 W/m2
20:15 36 °F /  2.2 °C 34.7 °F /  1.5 °C 29.7in /  1006.1hPa Calm     95% 0in /  0.0mm 0 W/m2
20:20 35.8 °F /  2.1 °C 34.5 °F /  1.4 °C 29.7in /  1006.1hPa Calm     95% 0in /  0.0mm 0 W/m2
20:25 35.8 °F /  2.1 °C 34.7 °F /  1.5 °C 29.7in /  1006.1hPa Calm     96% 0in /  0.0mm 0 W/m2
20:30 35.6 °F /  2 °C 34.5 °F /  1.4 °C 29.7in /  1006.4hPa Calm     96% 0in /  0.0mm 0 W/m2
20:35 35.4 °F /  1.9 °C 34.3 °F /  1.3 °C 29.7in /  1006.4hPa Calm     96% 0in /  0.0mm 0 W/m2
20:40 35.2 °F /  1.8 °C 34 °F /  1.1 °C 29.7in /  1006.4hPa Calm     95% 0in /  0.0mm 0 W/m2
20:45 35.1 °F /  1.7 °C 33.8 °F /  1 °C 29.7in /  1006.4hPa Calm     95% 0in /  0.0mm 0 W/m2
20:50 35.1 °F /  1.7 °C 34 °F /  1.1 °C 29.7in /  1006.4hPa Calm     96% 0in /  0.0mm 0 W/m2
20:55 34.9 °F /  1.6 °C 33.8 °F /  1 °C 29.7in /  1006.4hPa Calm     96% 0in /  0.0mm 0 W/m2
21:00 34.9 °F /  1.6 °C 33.8 °F /  1 °C 29.7in /  1006.8hPa Calm     96% 0in /  0.0mm 0 W/m2
21:05 34.9 °F /  1.6 °C 33.8 °F /  1 °C 29.7in /  1006.8hPa Calm     96% 0in /  0.0mm 0 W/m2
21:10 34.9 °F /  1.6 °C 33.8 °F /  1 °C 29.7in /  1006.8hPa Calm     96% 0in /  0.0mm 0 W/m2
21:15 34.9 °F /  1.6 °C 33.8 °F /  1 °C 29.7in /  1006.8hPa Calm     96% 0in /  0.0mm 0 W/m2
21:20 34.9 °F /  1.6 °C 33.8 °F /  1 °C 29.7in /  1006.8hPa Calm     96% 0in /  0.0mm 0 W/m2
21:25 34.7 °F /  1.5 °C 33.6 °F /  0.9 °C 29.7in /  1006.8hPa Calm     96% 0in /  0.0mm 0 W/m2
21:30 34.5 °F /  1.4 °C 33.4 °F /  0.8 °C 29.7in /  1007.1hPa Calm     96% 0in /  0.0mm 0 W/m2
21:35 34.3 °F /  1.3 °C 33.3 °F /  0.7 °C 29.7in /  1007.1hPa Calm     96% 0in /  0.0mm 0 W/m2
21:40 34.3 °F /  1.3 °C 33.3 °F /  0.7 °C 29.7in /  1007.1hPa Calm     96% 0in /  0.0mm 0 W/m2
21:45 34.3 °F /  1.3 °C 33.3 °F /  0.7 °C 29.8in /  1007.5hPa Calm     96% 0in /  0.0mm 0 W/m2
21:50 34.3 °F /  1.3 °C 33.3 °F /  0.7 °C 29.8in /  1007.5hPa Calm     96% 0in /  0.0mm 0 W/m2
21:56 34.3 °F /  1.3 °C 33.3 °F /  0.7 °C 29.8in /  1007.5hPa Calm     96% 0in /  0.0mm 0 W/m2
22:01 34.3 °F /  1.3 °C 33.3 °F /  0.7 °C 29.8in /  1007.5hPa Calm     96% 0in /  0.0mm 0 W/m2
22:06 34.5 °F /  1.4 °C 33.4 °F /  0.8 °C 29.8in /  1007.5hPa Calm     96% 0in /  0.0mm 0 W/m2
22:11 34.5 °F /  1.4 °C 33.4 °F /  0.8 °C 29.8in /  1007.5hPa Calm     96% 0in /  0.0mm 0 W/m2
22:16 34.5 °F /  1.4 °C 33.4 °F /  0.8 °C 29.8in /  1007.8hPa Calm     96% 0in /  0.0mm 0 W/m2
22:21 34.5 °F /  1.4 °C 33.4 °F /  0.8 °C 29.8in /  1007.8hPa Calm   1mph /  1.6km/h 96% 0in /  0.0mm 0 W/m2
22:26 34.5 °F /  1.4 °C 33.4 °F /  0.8 °C 29.8in /  1007.8hPa Calm     96% 0in /  0.0mm 0 W/m2
22:31 34.5 °F /  1.4 °C 33.4 °F /  0.8 °C 29.8in /  1007.8hPa Calm     96% 0in /  0.0mm 0 W/m2
22:36 34.5 °F /  1.4 °C 33.4 °F /  0.8 °C 29.8in /  1007.8hPa Calm     96% 0in /  0.0mm 0 W/m2
22:41 34.5 °F /  1.4 °C 33.4 °F /  0.8 °C 29.8in /  1007.8hPa Calm     96% 0in /  0.0mm 0 W/m2
22:46 34.5 °F /  1.4 °C 33.4 °F /  0.8 °C 29.8in /  1007.8hPa Calm   1mph /  1.6km/h 96% 0in /  0.0mm 0 W/m2
22:51 34.5 °F /  1.4 °C 33.4 °F /  0.8 °C 29.8in /  1007.8hPa Calm     96% 0in /  0.0mm 0 W/m2
22:56 34.5 °F /  1.4 °C 33.4 °F /  0.8 °C 29.8in /  1008.1hPa Calm   2mph /  3.2km/h 96% 0in /  0.0mm 0 W/m2
23:01 34.3 °F /  1.3 °C 33.3 °F /  0.7 °C 29.8in /  1008.1hPa Calm   1mph /  1.6km/h 96% 0in /  0.0mm 0 W/m2
23:06 34.3 °F /  1.3 °C 33.3 °F /  0.7 °C 29.8in /  1008.1hPa Calm     96% 0in /  0.0mm 0 W/m2
23:11 34.3 °F /  1.3 °C 33.3 °F /  0.7 °C 29.8in /  1008.1hPa Calm     96% 0in /  0.0mm 0 W/m2
23:16 34.2 °F /  1.2 °C 33.1 °F /  0.6 °C 29.8in /  1008.5hPa Calm     96% 0in /  0.0mm 0 W/m2
23:21 34.2 °F /  1.2 °C 33.1 °F /  0.6 °C 29.8in /  1008.5hPa Calm     96% 0in /  0.0mm 0 W/m2
23:26 34.2 °F /  1.2 °C 33.1 °F /  0.6 °C 29.8in /  1008.5hPa Calm     96% 0in /  0.0mm 0 W/m2
23:31 34.3 °F /  1.3 °C 33.3 °F /  0.7 °C 29.8in /  1008.5hPa Calm     96% 0in /  0.0mm 0 W/m2
23:36 34.3 °F /  1.3 °C 33.3 °F /  0.7 °C 29.8in /  1008.5hPa NW 0.9mph /  1.4km/h 2mph /  3.2km/h 96% 0in /  0.0mm 0 W/m2
23:41 34.3 °F /  1.3 °C 33.3 °F /  0.7 °C 29.8in /  1008.8hPa Calm     96% 0in /  0.0mm 0 W/m2
23:46 34.3 °F /  1.3 °C 33.3 °F /  0.7 °C 29.8in /  1008.8hPa Calm   2mph /  3.2km/h 96% 0in /  0.0mm 0 W/m2
23:51 34.5 °F /  1.4 °C 33.4 °F /  0.8 °C 29.8in /  1008.8hPa Calm     96% 0in /  0.0mm 0 W/m2
23:56 34.5 °F /  1.4 °C 33.4 °F /  0.8 °C 29.8in /  1008.8hPa Calm     96% 0in /  0.0mm 0 W/m2
Juneau County Weather
Compliments of Weather Underground - 4 mb